Time;durP1;ratioP1;P1;durP2;ratioP2;P2;SDS_P1;SDS_P2;PMS_P1;PMS_P2;Temp;Humidity;BMP_temperature;BMP_pressure;BME280_temperature;BME280_humidity;BME280_pressure;Samples;Min_cycle;Max_cycle;Signal;HPM_P1;HPM_P2
2020/12/30 00:01:35;;;;;;;48.93;23.37;;;1.20;99.90;;;;;;4139871;28;20272;-46
2020/12/30 00:03:36;;;;;;;47.97;24.27;;;1.30;99.90;;;;;;4140672;28;20283;-43
2020/12/30 00:05:37;;;;;;;46.63;23.73;;;1.30;99.90;;;;;;4140044;28;20766;-51
2020/12/30 00:07:39;;;;;;;44.33;22.40;;;1.30;99.90;;;;;;4141295;28;20279;-44
2020/12/30 00:09:40;;;;;;;53.33;23.73;;;1.30;99.90;;;;;;4140333;28;20743;-58
2020/12/30 00:11:41;;;;;;;50.07;24.63;;;1.30;99.90;;;;;;4140424;28;20341;-48
2020/12/30 00:13:42;;;;;;;55.93;28.53;;;1.30;99.90;;;;;;4139929;28;20279;-45
2020/12/30 00:15:44;;;;;;;62.00;30.87;;;1.30;99.90;;;;;;4140307;28;20322;-43
2020/12/30 00:17:45;;;;;;;65.93;32.53;;;1.30;99.90;;;;;;4141013;28;20275;-58
2020/12/30 00:19:46;;;;;;;68.57;33.70;;;1.30;99.90;;;;;;4134957;28;20323;-49
2020/12/30 00:21:47;;;;;;;55.30;27.73;;;1.20;99.90;;;;;;4124523;28;20621;-44
2020/12/30 00:23:48;;;;;;;52.93;27.03;;;1.20;99.90;;;;;;4123696;28;20721;-45
2020/12/30 00:25:50;;;;;;;52.00;25.40;;;1.20;99.90;;;;;;4123986;28;20618;-48
2020/12/30 00:27:51;;;;;;;50.13;26.47;;;1.20;99.90;;;;;;4123902;28;20256;-45
2020/12/30 00:29:53;;;;;;;62.17;29.70;;;1.20;99.90;;;;;;4124819;28;20275;-45
2020/12/30 00:31:54;;;;;;;55.83;28.93;;;1.20;99.90;;;;;;4123633;28;20272;-44
2020/12/30 00:33:55;;;;;;;55.40;27.80;;;1.20;99.90;;;;;;4127970;28;20302;-52
2020/12/30 00:35:56;;;;;;;53.97;27.07;;;1.20;99.90;;;;;;4139974;28;20736;-50
2020/12/30 00:37:57;;;;;;;56.47;28.93;;;1.30;99.90;;;;;;4140744;28;20260;-47
2020/12/30 00:39:58;;;;;;;49.87;27.30;;;1.30;99.90;;;;;;4139758;28;20275;-50
2020/12/30 00:42:00;;;;;;;51.47;27.20;;;1.30;99.90;;;;;;4140725;28;20263;-49
2020/12/30 00:44:01;;;;;;;48.83;25.87;;;1.30;99.90;;;;;;4140069;28;20271;-51
2020/12/30 00:46:03;;;;;;;57.50;31.40;;;1.40;99.90;;;;;;4140257;28;21186;-43
2020/12/30 00:48:04;;;;;;;58.90;27.17;;;1.30;99.90;;;;;;4138358;28;20279;-43
2020/12/30 00:50:06;;;;;;;59.77;28.20;;;1.30;99.90;;;;;;4130544;28;20280;-48
2020/12/30 00:52:09;;;;;;;61.40;28.23;;;1.30;99.90;;;;;;4124572;28;20272;-44
2020/12/30 00:54:10;;;;;;;55.93;27.80;;;1.30;99.90;;;;;;4125089;28;20331;-44
2020/12/30 00:56:11;;;;;;;48.80;26.20;;;1.30;99.90;;;;;;4127143;28;20407;-49
2020/12/30 00:58:12;;;;;;;61.97;29.90;;;1.30;99.90;;;;;;4126180;28;20284;-47
2020/12/30 01:00:13;;;;;;;57.10;29.00;;;1.30;99.90;;;;;;4127751;28;20299;-44
2020/12/30 01:02:14;;;;;;;62.50;29.93;;;1.30;99.90;;;;;;4126787;28;20272;-50
2020/12/30 01:04:16;;;;;;;63.53;30.90;;;1.30;99.90;;;;;;4128271;28;20334;-42
2020/12/30 01:06:17;;;;;;;62.10;30.57;;;1.20;99.90;;;;;;4126647;28;20396;-45
2020/12/30 01:08:19;;;;;;;55.93;28.87;;;1.20;99.90;;;;;;4128240;28;20664;-45
2020/12/30 01:10:20;;;;;;;59.67;29.37;;;1.30;99.90;;;;;;4126337;28;20318;-44
2020/12/30 01:12:21;;;;;;;57.70;28.17;;;1.20;99.90;;;;;;4127346;28;20347;-45
2020/12/30 01:14:22;;;;;;;63.47;30.43;;;1.20;99.90;;;;;;4127361;28;20350;-42
2020/12/30 01:16:24;;;;;;;73.23;36.33;;;1.20;99.90;;;;;;4127024;28;20740;-54
2020/12/30 01:18:25;;;;;;;181.57;75.77;;;1.20;99.90;;;;;;4127281;28;20326;-44
2020/12/30 01:20:27;;;;;;;249.40;108.13;;;1.20;99.90;;;;;;4126580;28;20312;-48
2020/12/30 01:22:28;;;;;;;92.77;44.50;;;1.20;99.90;;;;;;4127581;28;20312;-47
2020/12/30 01:24:29;;;;;;;74.97;35.53;;;1.20;99.90;;;;;;4125919;28;20776;-53
2020/12/30 01:26:30;;;;;;;85.33;40.20;;;1.10;99.90;;;;;;4140261;28;20337;-46
2020/12/30 01:28:31;;;;;;;90.63;42.47;;;1.20;99.90;;;;;;4142045;28;20306;-46
2020/12/30 01:30:32;;;;;;;65.87;34.13;;;1.10;99.90;;;;;;4143783;28;21598;-49
2020/12/30 01:32:33;;;;;;;66.37;32.20;;;1.20;99.90;;;;;;4142037;28;20349;-44
2020/12/30 01:34:34;;;;;;;70.10;33.93;;;1.10;99.90;;;;;;4143071;28;20275;-43
2020/12/30 01:36:36;;;;;;;74.17;33.93;;;1.10;99.90;;;;;;4142371;28;20780;-45
2020/12/30 01:38:38;;;;;;;70.90;32.77;;;1.10;99.90;;;;;;4144362;28;20271;-51
2020/12/30 01:40:39;;;;;;;63.10;29.67;;;1.10;99.90;;;;;;4142032;28;20256;-49
2020/12/30 01:42:48;;;;;;;75.43;32.97;;;1.10;99.90;;;;;;4142567;28;20279;-45
2020/12/30 01:44:49;;;;;;;80.57;36.23;;;1.10;99.90;;;;;;4143171;28;20315;-47
2020/12/30 01:46:51;;;;;;;88.50;43.57;;;1.10;99.90;;;;;;4139557;28;20345;-49
2020/12/30 01:48:52;;;;;;;70.83;34.67;;;1.00;99.90;;;;;;4126002;28;20260;-47
2020/12/30 01:50:53;;;;;;;60.53;31.40;;;1.00;99.90;;;;;;4125911;28;20334;-44
2020/12/30 01:52:55;;;;;;;62.60;29.47;;;1.10;99.90;;;;;;4127083;28;20280;-49
2020/12/30 01:54:56;;;;;;;67.20;28.97;;;1.00;99.90;;;;;;4125357;28;20276;-44
2020/12/30 01:56:57;;;;;;;50.37;25.53;;;1.00;99.90;;;;;;4127033;28;20296;-47
2020/12/30 01:59:04;;;;;;;57.47;27.80;;;1.00;99.90;;;;;;4125587;28;20321;-45
2020/12/30 02:01:06;;;;;;;43.93;22.97;;;1.00;99.90;;;;;;4126555;28;20350;-43
2020/12/30 02:03:08;;;;;;;43.87;23.43;;;1.00;99.90;;;;;;4125787;28;20275;-46
2020/12/30 02:05:10;;;;;;;49.33;25.00;;;1.00;99.90;;;;;;4126274;28;20728;-43
2020/12/30 02:07:11;;;;;;;54.97;28.90;;;1.00;99.90;;;;;;4132626;28;20333;-45
2020/12/30 02:09:13;;;;;;;70.53;33.73;;;1.00;99.90;;;;;;4143143;28;20333;-43
2020/12/30 02:11:14;;;;;;;60.47;29.00;;;1.00;99.90;;;;;;4134061;28;20280;-45
2020/12/30 02:13:17;;;;;;;77.27;32.83;;;1.00;99.90;;;;;;4126922;28;20276;-42
2020/12/30 02:15:26;;;;;;;70.17;33.10;;;1.00;99.90;;;;;;4126188;28;20780;-48
2020/12/30 02:17:27;;;;;;;71.13;33.00;;;1.00;99.90;;;;;;4127029;28;20386;-48
2020/12/30 02:19:28;;;;;;;68.53;33.30;;;1.10;99.90;;;;;;4125437;28;20689;-47
2020/12/30 02:21:29;;;;;;;61.37;30.33;;;1.10;99.90;;;;;;4126788;28;20264;-45
2020/12/30 02:23:33;;;;;;;61.50;29.80;;;1.00;99.90;;;;;;4125161;28;20276;-50
2020/12/30 02:25:35;;;;;;;62.20;30.63;;;1.00;99.90;;;;;;4138802;28;20291;-49
2020/12/30 02:27:36;;;;;;;68.77;33.47;;;1.00;99.90;;;;;;4141676;28;20264;-49
2020/12/30 02:29:37;;;;;;;67.67;31.70;;;1.10;99.90;;;;;;4140920;28;20314;-44
2020/12/30 02:31:38;;;;;;;70.40;32.30;;;1.10;99.90;;;;;;4142178;28;20353;-43
2020/12/30 02:33:39;;;;;;;72.00;35.50;;;1.20;99.90;;;;;;4141074;28;20287;-47
2020/12/30 02:35:41;;;;;;;69.40;33.73;;;1.30;99.90;;;;;;4142809;28;20271;-46
2020/12/30 02:37:42;;;;;;;60.07;29.00;;;1.30;99.90;;;;;;4138790;28;20299;-43
2020/12/30 02:39:43;;;;;;;52.10;26.27;;;1.20;99.90;;;;;;4142653;28;20275;-43
2020/12/30 02:41:44;;;;;;;55.80;28.20;;;1.30;99.90;;;;;;4140307;28;20744;-50
2020/12/30 02:43:46;;;;;;;47.47;25.67;;;1.30;99.90;;;;;;4142902;28;20337;-45
2020/12/30 02:45:49;;;;;;;44.60;21.67;;;1.30;99.90;;;;;;4141085;28;20275;-43
2020/12/30 02:47:50;;;;;;;41.20;20.03;;;1.30;99.90;;;;;;4142151;28;20321;-44
2020/12/30 02:49:51;;;;;;;38.80;18.70;;;1.30;99.90;;;;;;4140944;28;20707;-49
2020/12/30 02:51:52;;;;;;;39.07;17.77;;;1.20;99.90;;;;;;4141752;28;20276;-50
2020/12/30 02:53:53;;;;;;;35.03;18.53;;;1.00;99.90;;;;;;4141118;28;20271;-45
2020/12/30 02:55:54;;;;;;;38.03;20.03;;;0.90;99.90;;;;;;4141346;28;20670;-52
2020/12/30 02:57:55;;;;;;;39.23;21.07;;;0.90;99.90;;;;;;4140743;28;20303;-46
2020/12/30 02:59:56;;;;;;;40.23;20.73;;;0.90;99.90;;;;;;4140215;28;21087;-44
2020/12/30 03:01:57;;;;;;;42.00;21.37;;;0.80;99.90;;;;;;4126269;28;20276;-49
2020/12/30 03:03:59;;;;;;;45.13;22.77;;;0.90;99.90;;;;;;4124449;28;20819;-44
2020/12/30 03:06:00;;;;;;;41.90;21.40;;;0.90;99.90;;;;;;4126150;28;20276;-47
2020/12/30 03:08:01;;;;;;;41.03;21.10;;;0.90;99.90;;;;;;4124476;28;20303;-47
2020/12/30 03:10:02;;;;;;;46.17;23.87;;;0.90;99.90;;;;;;4125881;28;20264;-46
2020/12/30 03:12:03;;;;;;;45.20;23.30;;;0.80;99.90;;;;;;4124808;28;20264;-49
2020/12/30 03:14:04;;;;;;;56.63;27.40;;;0.70;99.90;;;;;;4126708;28;20332;-46
2020/12/30 03:16:07;;;;;;;64.30;27.87;;;0.70;99.90;;;;;;4139688;28;20275;-44
2020/12/30 03:18:08;;;;;;;55.40;27.10;;;0.80;99.90;;;;;;4142238;28;20359;-49
2020/12/30 03:20:09;;;;;;;58.77;27.93;;;0.80;99.90;;;;;;4140127;28;20259;-42
2020/12/30 03:22:10;;;;;;;57.50;27.83;;;0.80;99.90;;;;;;4141534;28;20333;-44
2020/12/30 03:24:11;;;;;;;61.53;27.37;;;0.90;99.90;;;;;;4140814;28;20298;-46
2020/12/30 03:26:12;;;;;;;61.00;27.10;;;1.00;99.90;;;;;;4140238;28;20299;-49
2020/12/30 03:28:14;;;;;;;62.33;28.77;;;1.00;99.90;;;;;;4141033;28;21078;-52
2020/12/30 03:30:15;;;;;;;61.90;27.23;;;1.10;99.90;;;;;;4138890;28;20314;-46
2020/12/30 03:32:16;;;;;;;57.27;25.90;;;1.10;99.90;;;;;;4141136;28;20354;-45
2020/12/30 03:34:17;;;;;;;51.60;25.67;;;1.10;99.90;;;;;;4124079;28;20272;-52
2020/12/30 03:36:18;;;;;;;55.30;24.97;;;1.20;99.90;;;;;;4125741;28;20260;-48
2020/12/30 03:38:19;;;;;;;42.87;23.43;;;1.20;99.90;;;;;;4124411;28;20303;-45
2020/12/30 03:40:21;;;;;;;47.33;23.53;;;1.30;99.90;;;;;;4124970;28;20358;-43
2020/12/30 03:42:22;;;;;;;41.03;23.47;;;1.30;99.90;;;;;;4124424;28;20276;-50
2020/12/30 03:44:23;;;;;;;43.00;21.13;;;1.30;99.90;;;;;;4125814;28;20354;-47
2020/12/30 03:46:24;;;;;;;40.60;22.07;;;1.40;99.90;;;;;;4124253;28;20276;-45
2020/12/30 03:48:26;;;;;;;42.33;21.40;;;1.40;99.90;;;;;;4125319;28;20326;-51
2020/12/30 03:50:27;;;;;;;40.80;20.83;;;1.40;99.90;;;;;;4123525;28;20789;-46
2020/12/30 03:52:28;;;;;;;43.40;21.07;;;1.40;99.90;;;;;;4125706;28;20276;-46
2020/12/30 03:54:30;;;;;;;40.50;22.70;;;1.50;99.90;;;;;;4133959;28;20272;-47
2020/12/30 03:56:31;;;;;;;41.50;22.00;;;1.40;99.90;;;;;;4140385;28;20275;-47
2020/12/30 03:58:32;;;;;;;42.80;20.93;;;1.40;99.90;;;;;;4140397;28;20303;-48
2020/12/30 04:00:33;;;;;;;39.40;20.83;;;1.40;99.90;;;;;;4140052;28;20341;-50
2020/12/30 04:02:34;;;;;;;34.70;19.93;;;1.40;99.90;;;;;;4140655;28;20271;-45
2020/12/30 04:04:36;;;;;;;40.30;22.17;;;1.40;99.90;;;;;;4139537;28;20325;-43
2020/12/30 04:06:37;;;;;;;44.10;23.73;;;1.40;99.90;;;;;;4141056;28;20260;-43
2020/12/30 04:08:38;;;;;;;41.90;21.67;;;1.40;99.90;;;;;;4140491;28;20267;-45
2020/12/30 04:10:39;;;;;;;43.10;22.87;;;1.40;99.90;;;;;;4140138;28;20279;-46
2020/12/30 04:12:40;;;;;;;44.90;21.73;;;1.40;99.90;;;;;;4140459;28;20638;-44
2020/12/30 04:14:41;;;;;;;37.57;19.73;;;1.40;99.90;;;;;;4140438;28;20333;-46
2020/12/30 04:16:42;;;;;;;45.27;21.17;;;1.40;99.90;;;;;;4138981;28;20724;-44
2020/12/30 04:18:43;;;;;;;42.87;20.57;;;1.40;99.90;;;;;;4140350;28;20357;-48
2020/12/30 04:20:44;;;;;;;46.13;22.07;;;1.40;99.90;;;;;;4140259;28;21507;-49
2020/12/30 04:22:46;;;;;;;44.60;23.60;;;1.40;99.90;;;;;;4140207;28;20415;-43
2020/12/30 04:24:47;;;;;;;51.40;24.63;;;1.20;99.90;;;;;;4139088;28;20776;-48
2020/12/30 04:26:48;;;;;;;49.03;24.73;;;1.20;99.90;;;;;;4140292;28;20255;-46
2020/12/30 04:28:50;;;;;;;45.70;23.00;;;1.10;99.90;;;;;;4139807;28;20734;-44
2020/12/30 04:30:51;;;;;;;49.03;25.40;;;1.00;99.90;;;;;;4139619;28;20678;-46
2020/12/30 04:32:52;;;;;;;48.10;26.77;;;1.00;99.90;;;;;;4140715;28;20349;-53
2020/12/30 04:34:53;;;;;;;49.27;26.33;;;0.90;99.90;;;;;;4138585;28;20318;-43
2020/12/30 04:36:54;;;;;;;56.87;28.07;;;0.90;99.90;;;;;;4140790;28;21027;-44
2020/12/30 04:38:55;;;;;;;57.17;28.77;;;0.90;99.90;;;;;;4138501;28;20272;-52
2020/12/30 04:41:07;;;;;;;53.90;29.47;;;0.90;99.90;;;;;;4140685;28;20271;-48
2020/12/30 04:43:11;;;;;;;62.77;31.33;;;0.90;99.90;;;;;;4139812;28;20264;-46
2020/12/30 04:45:12;;;;;;;61.93;30.03;;;0.90;99.90;;;;;;4140136;28;20333;-45
2020/12/30 04:47:14;;;;;;;51.23;27.87;;;0.80;99.90;;;;;;4139444;28;20345;-49
2020/12/30 04:49:16;;;;;;;36.67;19.20;;;0.80;99.90;;;;;;4141010;28;20267;-40
2020/12/30 04:51:18;;;;;;;49.43;24.37;;;0.90;99.90;;;;;;4140030;28;20260;-45
2020/12/30 04:53:22;;;;;;;50.10;25.67;;;1.00;99.90;;;;;;4141310;28;20666;-48
2020/12/30 04:55:24;;;;;;;43.87;22.47;;;1.00;99.90;;;;;;4139645;28;20323;-44
2020/12/30 04:57:45;;;;;;;49.13;23.80;;;1.00;99.90;;;;;;4140857;28;20302;-48
2020/12/30 04:59:51;;;;;;;45.70;22.92;;;1.10;99.90;;;;;;4137549;28;20288;-50
2020/12/30 05:02:10;;;;;;;45.97;23.00;;;1.10;99.90;;;;;;4140750;28;20116;-49
2020/12/30 05:04:12;;;;;;;49.60;22.87;;;1.00;99.90;;;;;;4139971;28;20361;-47
2020/12/30 05:06:15;;;;;;;32.97;16.97;;;1.00;99.90;;;;;;4140816;28;20279;-45
2020/12/30 05:08:16;;;;;;;32.93;17.37;;;1.10;99.90;;;;;;4139973;28;20329;-47
2020/12/30 05:10:17;;;;;;;32.30;17.07;;;1.30;99.90;;;;;;4140457;28;20299;-48
2020/12/30 05:12:19;;;;;;;31.80;16.63;;;1.50;99.90;;;;;;4139865;28;20818;-49
2020/12/30 05:14:21;;;;;;;30.40;15.37;;;1.40;99.90;;;;;;4139995;28;20799;-47
2020/12/30 05:16:25;;;;;;;23.87;13.97;;;1.60;99.90;;;;;;4140618;28;20620;-46
2020/12/30 05:18:26;;;;;;;25.70;13.40;;;1.60;99.90;;;;;;4139332;28;20854;-50
2020/12/30 05:20:35;;;;;;;34.33;17.43;;;1.70;99.90;;;;;;4128839;28;20296;-41
2020/12/30 05:22:36;;;;;;;27.27;15.87;;;1.70;99.90;;;;;;4123482;28;21206;-55
2020/12/30 05:24:38;;;;;;;28.97;15.60;;;1.70;99.90;;;;;;4124462;28;20280;-50
2020/12/30 05:26:41;;;;;;;25.90;15.30;;;1.70;99.90;;;;;;4121963;28;20300;-45
2020/12/30 05:28:43;;;;;;;28.33;14.23;;;1.80;99.90;;;;;;4123465;28;20284;-45
2020/12/30 05:30:44;;;;;;;20.73;10.90;;;1.80;99.90;;;;;;4122376;28;20299;-44
2020/12/30 05:32:45;;;;;;;22.43;11.93;;;2.00;99.90;;;;;;4123203;28;20276;-45
2020/12/30 05:34:47;;;;;;;20.23;11.57;;;2.10;99.90;;;;;;4122810;28;20521;-49
2020/12/30 05:36:49;;;;;;;18.20;11.07;;;2.30;99.90;;;;;;4123556;28;20276;-48
2020/12/30 05:38:50;;;;;;;15.03;9.33;;;2.40;99.90;;;;;;4122891;28;20370;-46
2020/12/30 05:40:51;;;;;;;17.17;8.97;;;2.50;99.90;;;;;;4126345;28;20295;-43
2020/12/30 05:42:53;;;;;;;14.93;9.40;;;2.60;99.90;;;;;;4125678;28;20280;-42
2020/12/30 05:44:55;;;;;;;12.37;7.20;;;2.70;99.90;;;;;;4126814;28;20288;-45
2020/12/30 05:47:34;;;;;;;15.03;8.20;;;2.80;99.90;;;;;;4125901;28;20346;-43
2020/12/30 05:49:35;;;;;;;13.40;7.57;;;2.90;99.90;;;;;;4125118;28;20284;-46
2020/12/30 05:51:38;;;;;;;16.23;8.17;;;3.00;99.90;;;;;;4124890;28;20276;-42
2020/12/30 05:53:40;;;;;;;14.53;8.07;;;3.00;99.90;;;;;;4126622;28;20283;-45
2020/12/30 05:55:41;;;;;;;13.93;7.83;;;3.10;99.90;;;;;;4125670;28;20399;-51
2020/12/30 05:57:42;;;;;;;12.87;7.60;;;3.10;99.90;;;;;;4127330;28;20327;-44
2020/12/30 05:59:44;;;;;;;14.17;7.67;;;3.10;99.90;;;;;;4125936;28;20284;-51
2020/12/30 06:01:48;;;;;;;18.23;7.90;;;3.20;99.90;;;;;;4125655;28;20715;-45
2020/12/30 06:03:49;;;;;;;13.63;8.30;;;3.30;99.90;;;;;;4126061;28;20339;-47
2020/12/30 06:05:50;;;;;;;12.17;6.90;;;3.30;99.90;;;;;;4125624;28;20343;-45
2020/12/30 06:07:53;;;;;;;11.80;7.30;;;3.40;99.90;;;;;;4126412;28;20288;-43
2020/12/30 06:09:54;;;;;;;13.13;7.77;;;3.40;99.90;;;;;;4126073;28;20284;-43
2020/12/30 06:11:56;;;;;;;10.90;6.83;;;3.40;99.90;;;;;;4125961;28;20280;-45
2020/12/30 06:14:05;;;;;;;18.37;7.90;;;3.40;99.90;;;;;;4125728;28;20873;-49
2020/12/30 06:16:07;;;;;;;10.73;7.47;;;3.50;99.90;;;;;;4126059;28;20292;-41
2020/12/30 06:18:10;;;;;;;14.83;7.47;;;3.50;99.90;;;;;;4127323;28;20827;-46
2020/12/30 06:20:19;;;;;;;14.43;7.50;;;3.60;99.90;;;;;;4141748;28;20629;-50
2020/12/30 06:22:24;;;;;;;11.00;7.17;;;3.60;99.90;;;;;;4140984;28;20291;-43
2020/12/30 06:24:28;;;;;;;11.17;6.67;;;3.70;99.90;;;;;;4141946;28;20267;-45
2020/12/30 06:26:30;;;;;;;14.73;8.07;;;3.80;99.90;;;;;;4140558;28;20345;-49
2020/12/30 06:28:32;;;;;;;11.57;6.80;;;3.90;99.90;;;;;;4140193;28;20292;-46
2020/12/30 06:30:34;;;;;;;13.17;6.83;;;3.90;99.90;;;;;;4141068;28;20798;-44
2020/12/30 06:32:35;;;;;;;14.17;7.70;;;4.00;99.90;;;;;;4141468;28;20283;-48
2020/12/30 06:34:36;;;;;;;12.73;6.87;;;4.00;99.90;;;;;;4141701;28;20267;-46
2020/12/30 06:36:38;;;;;;;11.57;6.10;;;4.10;99.90;;;;;;4141956;28;20304;-47
2020/12/30 06:38:41;;;;;;;11.90;6.47;;;4.20;99.90;;;;;;4142080;28;20667;-46
2020/12/30 06:40:51;;;;;;;10.50;6.23;;;4.20;99.90;;;;;;4141237;28;20784;-45
2020/12/30 06:42:55;;;;;;;11.00;6.50;;;4.30;99.90;;;;;;4141070;28;20578;-47
2020/12/30 06:44:56;;;;;;;9.67;6.00;;;4.30;99.90;;;;;;4140603;28;20275;-46
2020/12/30 06:46:57;;;;;;;14.63;8.00;;;4.40;99.90;;;;;;4141261;28;20276;-45
2020/12/30 06:49:03;;;;;;;11.37;5.83;;;4.40;99.90;;;;;;4140819;28;20279;-45
2020/12/30 06:51:16;;;;;;;10.80;6.17;;;4.40;99.90;;;;;;4141554;28;20271;-44
2020/12/30 06:53:32;;;;;;;11.53;6.47;;;4.40;99.90;;;;;;4138359;28;20854;-47
2020/12/30 06:55:45;;;;;;;10.00;5.63;;;4.40;99.90;;;;;;4139420;28;20324;-46
2020/12/30 06:57:47;;;;;;;9.03;5.80;;;4.50;99.90;;;;;;4132998;28;20303;-42
2020/12/30 06:59:48;;;;;;;9.07;5.00;;;4.70;99.90;;;;;;4125352;28;20495;-46
2020/12/30 07:02:03;;;;;;;10.60;5.77;;;4.80;99.90;;;;;;4125127;28;20699;-46
2020/12/30 07:04:08;;;;;;;6.67;4.33;;;4.90;99.90;;;;;;4125680;28;20319;-43
2020/12/30 07:06:29;;;;;;;8.13;5.03;;;5.10;99.90;;;;;;4123540;28;20280;-43
2020/12/30 07:08:37;;;;;;;10.47;5.57;;;5.20;99.90;;;;;;4140994;28;20341;-52
2020/12/30 07:10:45;;;;;;;6.00;2.70;;;5.30;99.90;;;;;;4124426;28;20287;-48
2020/12/30 07:12:46;;;;;;;5.87;3.73;;;5.70;99.90;;;;;;4124646;28;20322;-48
2020/12/30 07:14:48;;;;;;;13.23;5.40;;;6.10;99.90;;;;;;4123697;28;20315;-46
2020/12/30 07:16:57;;;;;;;9.23;4.57;;;6.10;99.90;;;;;;4124468;28;20275;-47
2020/12/30 07:18:58;;;;;;;12.43;5.30;;;6.20;99.90;;;;;;4123661;28;20291;-42
2020/12/30 07:21:12;;;;;;;8.40;4.27;;;6.00;99.90;;;;;;4126086;28;20667;-42
2020/12/30 07:23:15;;;;;;;7.03;4.07;;;5.90;99.90;;;;;;4139696;28;20271;-45
2020/12/30 07:25:21;;;;;;;7.00;4.33;;;5.90;99.90;;;;;;4140744;28;20271;-46
2020/12/30 07:27:27;;;;;;;9.67;4.87;;;6.10;99.90;;;;;;4139311;28;20333;-48
2020/12/30 07:29:28;;;;;;;8.90;4.83;;;6.30;99.90;;;;;;4140339;28;20837;-46
2020/12/30 07:31:35;;;;;;;8.70;4.13;;;6.40;99.90;;;;;;4138983;28;20275;-44
2020/12/30 07:33:39;;;;;;;5.70;3.33;;;6.50;99.90;;;;;;4138398;28;20333;-42
2020/12/30 07:35:40;;;;;;;3.57;2.40;;;6.80;99.90;;;;;;4139695;28;20338;-46
2020/12/30 07:37:42;;;;;;;5.37;2.63;;;7.20;99.90;;;;;;4140682;28;20392;-48
2020/12/30 07:39:47;;;;;;;5.83;2.23;;;7.60;99.90;;;;;;4139017;28;20330;-46
2020/12/30 07:41:48;;;;;;;4.43;1.70;;;7.90;99.90;;;;;;4138320;28;20121;-46
2020/12/30 07:43:53;;;;;;;3.13;2.03;;;8.20;99.90;;;;;;4139203;28;20111;-45
2020/12/30 07:46:20;;;;;;;3.27;1.77;;;8.40;99.90;;;;;;4139250;28;20661;-51
2020/12/30 07:48:22;;;;;;;5.20;1.87;;;8.70;99.90;;;;;;4123595;28;20046;-43
2020/12/30 07:50:23;;;;;;;4.40;1.27;;;8.90;99.90;;;;;;4132667;28;20062;-47
2020/12/30 07:52:25;;;;;;;3.73;1.57;;;9.10;99.90;;;;;;4138100;28;20037;-46
2020/12/30 07:54:27;;;;;;;4.23;1.87;;;9.20;99.90;;;;;;4123939;28;20467;-53
2020/12/30 07:56:28;;;;;;;2.73;1.70;;;9.30;99.90;;;;;;4123088;28;20384;-47
2020/12/30 07:58:29;;;;;;;5.10;2.23;;;9.30;99.90;;;;;;4122424;28;20054;-48
2020/12/30 08:00:30;;;;;;;3.00;1.80;;;9.30;99.90;;;;;;4124955;28;20113;-43
2020/12/30 08:02:31;;;;;;;5.63;2.20;;;9.40;99.90;;;;;;4123383;28;20561;-50
2020/12/30 08:04:35;;;;;;;1.87;1.67;;;9.50;99.90;;;;;;4123462;28;20089;-47
2020/12/30 08:06:44;;;;;;;2.70;2.20;;;9.60;99.90;;;;;;4122468;28;20109;-42
2020/12/30 08:08:47;;;;;;;5.63;3.30;;;9.60;99.90;;;;;;4125291;28;20426;-41
2020/12/30 08:10:55;;;;;;;5.03;2.77;;;9.80;99.90;;;;;;4123344;28;20554;-47
2020/12/30 08:13:07;;;;;;;4.37;2.53;;;10.00;99.90;;;;;;4123776;28;20104;-48
2020/12/30 08:15:11;;;;;;;4.73;2.97;;;10.10;99.90;;;;;;4122843;28;20030;-45
2020/12/30 08:17:14;;;;;;;4.77;2.20;;;10.40;99.90;;;;;;4122434;28;20073;-42
2020/12/30 08:19:49;;;;;;;4.97;1.93;;;10.70;99.90;;;;;;4122914;28;20499;-46
2020/12/30 08:22:06;;;;;;;5.87;2.13;;;10.90;99.90;;;;;;4119506;28;20054;-48
2020/12/30 08:24:10;;;;;;;4.53;2.00;;;11.00;99.90;;;;;;4122580;28;20526;-44
2020/12/30 08:26:12;;;;;;;10.10;3.20;;;11.20;99.90;;;;;;4123420;28;20074;-44
2020/12/30 08:28:13;;;;;;;6.13;3.13;;;11.30;99.90;;;;;;4122295;28;20453;-43
2020/12/30 08:30:14;;;;;;;4.83;2.27;;;11.50;99.90;;;;;;4126932;28;20042;-46
2020/12/30 08:32:33;;;;;;;5.17;2.50;;;11.50;99.90;;;;;;4139062;28;20114;-47
2020/12/30 08:34:41;;;;;;;4.27;2.20;;;11.50;99.90;;;;;;4139616;28;20045;-52
2020/12/30 08:36:46;;;;;;;6.70;2.73;;;11.40;99.90;;;;;;4139293;28;20037;-44
2020/12/30 08:38:52;;;;;;;3.17;1.90;;;11.40;99.90;;;;;;4139584;28;20073;-45
2020/12/30 08:40:56;;;;;;;4.63;1.80;;;11.50;99.90;;;;;;4136980;28;20104;-43
2020/12/30 08:43:31;;;;;;;9.83;2.40;;;11.20;99.90;;;;;;4140710;28;20092;-43
2020/12/30 08:45:35;;;;;;;6.07;2.13;;;11.20;99.90;;;;;;4138423;28;20104;-47
2020/12/30 08:47:38;;;;;;;5.03;1.93;;;11.40;99.90;;;;;;4139452;28;20038;-52
2020/12/30 08:49:42;;;;;;;4.33;1.70;;;11.50;99.90;;;;;;4129846;28;20117;-42
2020/12/30 08:51:43;;;;;;;3.43;1.90;;;11.60;99.90;;;;;;4124172;28;20093;-44
2020/12/30 08:53:44;;;;;;;3.80;1.90;;;11.70;99.90;;;;;;4122147;28;20104;-42
2020/12/30 08:55:53;;;;;;;5.77;3.00;;;11.80;99.90;;;;;;4123334;28;20108;-46
2020/12/30 08:57:54;;;;;;;6.90;2.97;;;12.00;99.90;;;;;;4121809;28;20116;-46
2020/12/30 09:00:23;;;;;;;3.60;2.10;;;12.10;99.90;;;;;;4124163;28;20035;-48
2020/12/30 09:02:24;;;;;;;3.17;2.10;;;12.20;99.90;;;;;;4122754;28;20169;-51
2020/12/30 09:04:26;;;;;;;8.30;2.77;;;12.20;99.90;;;;;;4125040;28;20038;-53
2020/12/30 09:06:28;;;;;;;6.73;2.40;;;12.20;99.90;;;;;;4138889;28;20038;-48
2020/12/30 09:08:30;;;;;;;2.43;1.57;;;12.20;99.90;;;;;;4140185;28;20034;-54
2020/12/30 09:10:33;;;;;;;5.93;2.10;;;12.20;99.90;;;;;;4138795;28;20100;-49
2020/12/30 09:12:35;;;;;;;7.67;2.13;;;12.00;99.90;;;;;;4139630;28;20096;-48
2020/12/30 09:14:38;;;;;;;1.70;1.27;;;11.90;99.90;;;;;;4139894;28;20026;-47
2020/12/30 09:17:04;;;;;;;3.77;1.90;;;11.90;99.90;;;;;;4125495;28;20038;-53
2020/12/30 09:19:05;;;;;;;3.33;1.83;;;11.90;99.90;;;;;;4141910;28;20584;-61
2020/12/30 09:21:27;;;;;;;4.83;2.67;;;11.80;99.90;;;;;;4136111;28;20046;-54
2020/12/30 09:23:28;;;;;;;4.93;2.40;;;11.80;99.90;;;;;;4125401;28;20624;-51
2020/12/30 09:25:35;;;;;;;5.43;2.37;;;11.80;99.90;;;;;;4126501;28;20537;-49
2020/12/30 09:27:36;;;;;;;8.07;1.90;;;11.90;99.90;;;;;;4126068;28;20153;-50
2020/12/30 09:29:37;;;;;;;4.80;2.30;;;11.90;99.90;;;;;;4125809;28;20491;-54
2020/12/30 09:31:39;;;;;;;4.00;1.50;;;11.80;99.90;;;;;;4125299;28;20104;-55
2020/12/30 09:33:40;;;;;;;5.33;2.67;;;11.90;99.90;;;;;;4133831;28;20045;-53
2020/12/30 09:35:41;;;;;;;13.80;2.30;;;11.90;99.90;;;;;;4142766;28;20457;-51
2020/12/30 09:37:51;;;;;;;11.80;1.87;;;12.00;99.90;;;;;;4141820;28;20096;-54
2020/12/30 09:40:22;;;;;;;9.53;1.83;;;12.10;99.90;;;;;;4128754;28;20042;-52
2020/12/30 09:42:23;;;;;;;5.53;2.13;;;12.20;99.90;;;;;;4113533;28;20043;-45
2020/12/30 09:44:24;;;;;;;7.83;1.60;;;12.30;99.90;;;;;;4126369;28;20035;-53
2020/12/30 09:46:25;;;;;;;3.97;1.73;;;12.30;99.90;;;;;;4126166;28;20038;-51
2020/12/30 09:48:26;;;;;;;3.77;1.67;;;12.40;99.90;;;;;;4126447;28;20093;-51
2020/12/30 09:50:28;;;;;;;4.63;1.37;;;12.40;99.90;;;;;;4125726;28;20097;-48
2020/12/30 09:52:43;;;;;;;3.27;1.70;;;12.50;99.90;;;;;;4126848;28;20475;-50
2020/12/30 09:54:44;;;;;;;6.13;2.47;;;12.50;99.90;;;;;;4125856;28;20046;-50
2020/12/30 09:56:49;;;;;;;3.93;1.20;;;12.70;99.90;;;;;;4127273;28;20502;-47
2020/12/30 09:58:50;;;;;;;2.10;0.80;;;12.90;99.90;;;;;;4125713;28;20120;-48
2020/12/30 10:00:51;;;;;;;2.93;1.10;;;13.10;99.40;;;;;;4126692;28;20490;-49
2020/12/30 10:02:53;;;;;;;4.23;0.80;;;13.20;99.10;;;;;;4124700;28;20081;-48
2020/12/30 10:04:54;;;;;;;1.80;0.60;;;13.30;98.70;;;;;;4126742;28;20042;-51
2020/12/30 10:06:55;;;;;;;3.57;0.87;;;13.40;98.50;;;;;;4123532;28;20038;-47
2020/12/30 10:08:56;;;;;;;1.33;0.60;;;13.50;98.50;;;;;;4126418;28;20038;-45
2020/12/30 10:10:57;;;;;;;3.23;1.93;;;13.60;98.10;;;;;;4125524;28;20030;-43
2020/12/30 10:12:58;;;;;;;4.57;2.10;;;13.60;98.40;;;;;;4126844;28;20034;-49
2020/12/30 10:14:59;;;;;;;7.87;2.63;;;13.20;98.30;;;;;;4125510;28;20031;-48
2020/12/30 10:17:01;;;;;;;7.53;2.53;;;12.90;99.20;;;;;;4128790;28;20100;-49
2020/12/30 10:19:02;;;;;;;6.63;2.70;;;12.60;99.80;;;;;;4125840;28;20160;-45
2020/12/30 10:21:03;;;;;;;8.87;2.70;;;12.40;99.90;;;;;;4125728;28;20092;-50
2020/12/30 10:23:06;;;;;;;10.47;2.83;;;12.40;99.90;;;;;;4126690;28;20183;-51
2020/12/30 10:25:09;;;;;;;4.23;2.17;;;12.50;99.90;;;;;;4124671;28;20038;-49
2020/12/30 10:27:14;;;;;;;4.13;2.30;;;12.60;99.90;;;;;;4126241;28;20112;-46
2020/12/30 10:29:15;;;;;;;2.90;2.20;;;12.50;99.90;;;;;;4124883;28;20038;-50
2020/12/30 10:31:18;;;;;;;3.13;2.17;;;12.40;99.90;;;;;;4126712;28;20795;-50
2020/12/30 10:33:19;;;;;;;5.00;2.50;;;12.40;99.90;;;;;;4124234;28;20042;-49
2020/12/30 10:35:20;;;;;;;6.67;2.67;;;12.40;99.90;;;;;;4108954;28;20459;-47
2020/12/30 10:37:22;;;;;;;10.83;2.73;;;12.40;99.90;;;;;;4134723;28;20115;-48
2020/12/30 10:39:23;;;;;;;7.03;3.27;;;12.30;99.90;;;;;;4134240;28;20050;-43